createdAt,value
2018-12-05T08:45:48.712Z,1023.32
2018-12-05T08:46:48.670Z,1023.33
2018-12-05T08:47:49.697Z,1023.26
2018-12-05T08:48:48.659Z,1023.34
2018-12-05T08:49:48.726Z,1023.34
2018-12-05T08:50:48.638Z,1023.35
2018-12-05T08:51:48.709Z,1023.29
2018-12-05T08:52:48.607Z,1023.31
2018-12-05T08:53:48.681Z,1023.28
2018-12-05T08:54:48.599Z,1023.30
2018-12-05T08:55:48.649Z,1023.33
2018-12-05T08:56:48.558Z,1023.27
2018-12-05T08:57:48.627Z,1023.21
2018-12-05T08:58:48.547Z,1023.26
2018-12-05T08:59:48.621Z,1023.26
2018-12-05T09:00:48.512Z,1023.22
2018-12-05T09:01:48.559Z,1023.30
2018-12-05T09:02:48.487Z,1023.32
2018-12-05T09:03:48.525Z,1023.29
2018-12-05T09:04:48.490Z,1023.30
2018-12-05T09:05:48.531Z,1023.27
2018-12-05T09:06:48.451Z,1023.28
2018-12-05T09:07:48.461Z,1023.27
2018-12-05T09:08:48.417Z,1023.28
2018-12-05T09:09:48.467Z,1023.24
2018-12-05T09:10:48.419Z,1023.23
2018-12-05T09:11:48.502Z,1023.24
2018-12-05T09:12:48.375Z,1023.26
2018-12-05T09:13:48.463Z,1023.28
2018-12-05T09:14:48.383Z,1023.25
2018-12-05T09:15:48.441Z,1023.31
2018-12-05T09:16:48.351Z,1023.31
2018-12-05T09:17:48.421Z,1023.29
2018-12-05T09:18:48.306Z,1023.31
2018-12-05T09:19:48.391Z,1023.34
2018-12-05T09:20:48.313Z,1023.32
2018-12-05T09:21:48.335Z,1023.29
2018-12-05T09:22:48.273Z,1023.28
2018-12-05T09:23:48.311Z,1023.37
2018-12-05T09:24:48.251Z,1023.31
2018-12-05T09:25:49.342Z,1023.33
2018-12-05T09:26:48.223Z,1023.30
2018-12-05T09:27:48.338Z,1023.28
2018-12-05T09:28:48.201Z,1023.34
2018-12-05T09:29:48.315Z,1023.36
2018-12-05T09:30:48.203Z,1023.30
2018-12-05T09:31:48.279Z,1023.28
2018-12-05T09:32:48.159Z,1023.38
2018-12-05T09:33:49.171Z,1023.33
2018-12-05T09:34:48.136Z,1023.37
2018-12-05T09:35:48.251Z,1023.26
2018-12-05T09:36:48.105Z,1023.32
2018-12-05T09:37:49.217Z,1023.29
2018-12-05T09:38:48.100Z,1023.31
2018-12-05T09:39:48.158Z,1023.27
2018-12-05T09:40:48.093Z,1023.24
2018-12-05T09:41:48.227Z,1023.28
2018-12-05T09:42:48.039Z,1023.29
2018-12-05T09:43:48.193Z,1023.28
2018-12-05T09:44:48.020Z,1023.25
2018-12-05T09:45:48.207Z,1023.25
2018-12-05T09:46:48.000Z,1023.29
2018-12-05T09:47:48.135Z,1023.25
2018-12-05T09:48:47.973Z,1023.30
2018-12-05T09:49:48.096Z,1023.28
2018-12-05T09:50:47.974Z,1023.33
2018-12-05T09:51:48.068Z,1023.30
2018-12-05T09:52:47.924Z,1023.33
2018-12-05T09:53:48.031Z,1023.34
2018-12-05T09:54:47.916Z,1023.37
2018-12-05T09:55:48.079Z,1023.36
2018-12-05T09:56:47.883Z,1023.33
2018-12-05T09:57:47.970Z,1023.32
2018-12-05T09:58:47.864Z,1023.34
2018-12-05T09:59:48.044Z,1023.39
2018-12-05T10:00:47.870Z,1023.37
2018-12-05T10:01:47.915Z,1023.37
2018-12-05T10:02:47.841Z,1023.39
2018-12-05T10:03:47.976Z,1023.33
2018-12-05T10:04:47.796Z,1023.34
2018-12-05T10:05:47.942Z,1023.41
2018-12-05T10:06:47.796Z,1023.43
2018-12-05T10:07:47.911Z,1023.43
2018-12-05T10:08:47.744Z,1023.37
2018-12-05T10:09:47.878Z,1023.43
2018-12-05T10:10:47.718Z,1023.41
2018-12-05T10:11:47.843Z,1023.45
2018-12-05T10:12:47.702Z,1023.40
2018-12-05T10:13:48.840Z,1023.44
2018-12-05T10:14:47.680Z,1023.46
2018-12-05T10:15:49.732Z,1023.46
2018-12-05T10:16:47.682Z,1023.47
2018-12-05T10:17:47.758Z,1023.43
2018-12-05T10:18:47.629Z,1023.43
2018-12-05T10:19:47.734Z,1023.42
2018-12-05T10:20:47.618Z,1023.41
2018-12-05T10:21:47.738Z,1023.39
2018-12-05T10:22:47.595Z,1023.37
2018-12-05T10:23:47.653Z,1023.31
2018-12-05T10:24:47.563Z,1023.36
2018-12-05T10:25:47.727Z,1023.25
2018-12-05T10:26:47.562Z,1023.29
2018-12-05T10:27:47.597Z,1023.25
2018-12-05T10:28:47.522Z,1023.21
2018-12-05T10:29:47.662Z,1023.24
2018-12-05T10:30:47.505Z,1023.26
2018-12-05T10:31:47.676Z,1023.27
2018-12-05T10:32:47.476Z,1023.27
2018-12-05T10:33:47.601Z,1023.24
2018-12-05T10:34:47.444Z,1023.28
2018-12-05T10:35:47.578Z,1023.25
2018-12-05T10:36:47.448Z,1023.21
2018-12-05T10:37:47.537Z,1023.21
2018-12-05T10:38:47.396Z,1023.17
2018-12-05T10:39:47.515Z,1023.26
2018-12-05T10:40:47.375Z,1023.20
2018-12-05T10:41:47.518Z,1023.22
2018-12-05T10:42:47.357Z,1023.22
2018-12-05T10:43:47.545Z,1023.21
2018-12-05T10:44:47.341Z,1023.19
2018-12-05T10:45:47.410Z,1023.15
2018-12-05T10:46:47.345Z,1023.08
2018-12-05T10:47:47.495Z,1023.15
2018-12-05T10:48:47.304Z,1023.12
2018-12-05T10:49:47.450Z,1023.06
2018-12-05T10:50:47.266Z,1023.10
2018-12-05T10:51:47.348Z,1023.06
2018-12-05T10:52:47.237Z,1023.02
2018-12-05T10:53:47.397Z,1023.09
2018-12-05T10:54:47.233Z,1023.04
2018-12-05T10:55:47.262Z,1023.01
2018-12-05T10:56:47.226Z,1023.06
2018-12-05T10:57:47.324Z,1023.04
2018-12-05T10:58:47.184Z,1023.04
2018-12-05T10:59:47.295Z,1022.98
2018-12-05T11:00:47.181Z,1022.95
2018-12-05T11:01:47.297Z,1023.01
2018-12-05T11:02:47.123Z,1023.03
2018-12-05T11:03:47.225Z,1023.06
2018-12-05T11:04:47.110Z,1023.03
2018-12-05T11:05:47.410Z,1022.98
2018-12-05T11:06:47.162Z,1023.00
2018-12-05T11:07:47.200Z,1022.96
2018-12-05T11:08:47.055Z,1022.94
2018-12-05T11:09:47.233Z,1022.96
2018-12-05T11:10:47.031Z,1022.95
2018-12-05T11:11:47.204Z,1022.95
2018-12-05T11:12:47.037Z,1022.95
2018-12-05T11:13:47.073Z,1022.94
2018-12-05T11:14:46.995Z,1022.94
2018-12-05T11:15:47.143Z,1022.86
2018-12-05T11:16:46.987Z,1022.88
2018-12-05T11:17:47.045Z,1022.88
2018-12-05T11:18:46.951Z,1022.88
2018-12-05T11:19:47.087Z,1022.87
2018-12-05T11:20:46.923Z,1022.85
2018-12-05T11:21:49.871Z,1022.85
2018-12-05T11:22:46.920Z,1022.83
2018-12-05T11:23:47.595Z,1022.83
2018-12-05T11:24:46.873Z,1022.77
2018-12-05T11:25:46.972Z,1022.79
2018-12-05T11:26:46.849Z,1022.78
2018-12-05T11:27:47.081Z,1022.82
2018-12-05T11:28:46.840Z,1022.85
2018-12-05T11:29:46.909Z,1022.87
2018-12-05T11:30:46.811Z,1022.85
2018-12-05T11:31:46.878Z,1022.83
2018-12-05T11:32:46.946Z,1022.82
2018-12-05T11:33:46.949Z,1022.81
2018-12-05T11:34:46.765Z,1022.76
2018-12-05T11:35:46.821Z,1022.79
2018-12-05T11:36:46.739Z,1022.75
2018-12-05T11:37:46.926Z,1022.82
2018-12-05T11:38:46.728Z,1022.82
2018-12-05T11:39:46.852Z,1022.81
2018-12-05T11:40:46.710Z,1022.81
2018-12-05T11:41:46.834Z,1022.79
2018-12-05T11:42:46.745Z,1022.81
2018-12-05T11:43:46.788Z,1022.81
2018-12-05T11:44:46.657Z,1022.77
2018-12-05T11:45:46.863Z,1022.72
2018-12-05T11:46:46.629Z,1022.79
2018-12-05T11:47:46.768Z,1022.78
2018-12-05T11:48:46.625Z,1022.77
2018-12-05T11:49:46.797Z,1022.76
2018-12-05T11:50:46.592Z,1022.78
2018-12-05T11:51:46.660Z,1022.81
2018-12-05T11:52:46.602Z,1022.75
2018-12-05T11:53:46.629Z,1022.73
2018-12-05T11:54:46.544Z,1022.75
2018-12-05T11:55:46.611Z,1022.75
2018-12-05T11:56:46.533Z,1022.76
2018-12-05T11:57:46.567Z,1022.72
2018-12-05T11:58:46.529Z,1022.71
2018-12-05T11:59:46.547Z,1022.72
2018-12-05T12:00:46.475Z,1022.73
2018-12-05T12:01:46.469Z,1022.70
2018-12-05T12:02:46.463Z,1022.67
2018-12-05T12:03:46.511Z,1022.59
2018-12-05T12:04:46.429Z,1022.63
2018-12-05T12:05:46.561Z,1022.62
2018-12-05T12:06:46.415Z,1022.55
2018-12-05T12:07:46.513Z,1022.61
2018-12-05T12:08:46.407Z,1022.57
2018-12-05T12:09:46.481Z,1022.49
2018-12-05T12:10:46.363Z,1022.53
2018-12-05T12:11:46.445Z,1022.53
2018-12-05T12:12:46.339Z,1022.53
2018-12-05T12:13:46.451Z,1022.44
2018-12-05T12:14:46.329Z,1022.48
2018-12-05T12:15:46.379Z,1022.46
2018-12-05T12:16:46.309Z,1022.48
2018-12-05T12:17:46.360Z,1022.43
2018-12-05T12:18:46.294Z,1022.48
2018-12-05T12:19:47.343Z,1022.34
2018-12-05T12:20:46.255Z,1022.35
2018-12-05T12:21:46.293Z,1022.34
2018-12-05T12:22:46.231Z,1022.35
2018-12-05T12:23:46.311Z,1022.34
2018-12-05T12:24:46.209Z,1022.35
2018-12-05T12:25:46.221Z,1022.31
2018-12-05T12:26:46.188Z,1022.34
2018-12-05T12:27:46.192Z,1022.35
2018-12-05T12:28:46.191Z,1022.31
2018-12-05T12:29:46.259Z,1022.35
2018-12-05T12:30:46.148Z,1022.37
2018-12-05T12:31:46.243Z,1022.34
2018-12-05T12:32:46.115Z,1022.36
2018-12-05T12:33:46.243Z,1022.36
2018-12-05T12:34:46.101Z,1022.34
2018-12-05T12:35:46.181Z,1022.35
2018-12-05T12:36:46.085Z,1022.27
2018-12-05T12:37:46.223Z,1022.31
2018-12-05T12:38:46.051Z,1022.33
2018-12-05T12:39:46.153Z,1022.35
2018-12-05T12:40:46.023Z,1022.32
2018-12-05T12:41:46.098Z,1022.34
2018-12-05T12:42:46.006Z,1022.34
2018-12-05T12:43:46.040Z,1022.32
2018-12-05T12:44:45.995Z,1022.28
2018-12-05T12:45:46.006Z,1022.28
2018-12-05T12:46:45.965Z,1022.27
2018-12-05T12:47:45.975Z,1022.29
2018-12-05T12:48:45.942Z,1022.24
2018-12-05T12:49:45.983Z,1022.19
2018-12-05T12:50:45.915Z,1022.22
2018-12-05T12:51:46.014Z,1022.25
2018-12-05T12:52:45.898Z,1022.21
2018-12-05T12:53:45.998Z,1022.19
2018-12-05T12:54:45.906Z,1022.14
2018-12-05T12:55:46.043Z,1022.18
2018-12-05T12:56:45.853Z,1022.18
2018-12-05T12:57:45.923Z,1022.15
2018-12-05T12:58:45.835Z,1022.16
2018-12-05T12:59:45.952Z,1022.20
2018-12-05T13:00:45.807Z,1022.27
2018-12-05T13:01:45.886Z,1022.26
2018-12-05T13:02:45.782Z,1022.32
2018-12-05T13:03:45.826Z,1022.32
2018-12-05T13:04:45.781Z,1022.29
2018-12-05T13:05:45.792Z,1022.19
2018-12-05T13:06:45.732Z,1022.24
2018-12-05T13:07:45.761Z,1022.26
2018-12-05T13:08:45.712Z,1022.20
2018-12-05T13:09:45.774Z,1022.18
2018-12-05T13:10:45.689Z,1022.23
2018-12-05T13:11:45.805Z,1022.24
2018-12-05T13:12:45.668Z,1022.24
2018-12-05T13:13:46.686Z,1022.20
2018-12-05T13:14:45.669Z,1022.18
2018-12-05T13:15:45.747Z,1022.15
2018-12-05T13:16:45.626Z,1022.19
2018-12-05T13:17:45.703Z,1022.11
2018-12-05T13:18:45.610Z,1022.12
2018-12-05T13:19:45.724Z,1022.12
2018-12-05T13:20:45.591Z,1022.12
2018-12-05T13:21:45.643Z,1022.09
2018-12-05T13:22:45.561Z,1022.13
2018-12-05T13:23:45.607Z,1022.07
2018-12-05T13:24:45.555Z,1022.07
2018-12-05T13:25:45.581Z,1022.10
2018-12-05T13:26:45.531Z,1022.06
2018-12-05T13:27:45.551Z,1022.05
2018-12-05T13:28:45.499Z,1022.04
2018-12-05T13:29:45.550Z,1022.04
2018-12-05T13:30:45.465Z,1021.99
2018-12-05T13:31:45.481Z,1022.07
2018-12-05T13:32:45.437Z,1022.03
2018-12-05T13:33:45.556Z,1022.09
2018-12-05T13:34:45.463Z,1022.09
2018-12-05T13:35:45.457Z,1022.07
2018-12-05T13:36:45.397Z,1022.09
2018-12-05T13:37:45.495Z,1022.06
2018-12-05T13:38:45.373Z,1022.05
2018-12-05T13:39:45.459Z,1022.03
2018-12-05T13:40:47.001Z,1022.05
2018-12-05T13:41:45.431Z,1022.03
2018-12-05T13:42:45.341Z,1021.98
2018-12-05T13:43:45.388Z,1022.02
2018-12-05T13:44:45.311Z,1022.02
2018-12-05T13:45:45.413Z,1022.04
2018-12-05T13:46:45.289Z,1022.00
2018-12-05T13:47:45.327Z,1022.04
2018-12-05T13:48:45.274Z,1022.00
2018-12-05T13:49:45.298Z,1022.03
2018-12-05T13:50:45.275Z,1021.91
2018-12-05T13:51:45.366Z,1021.92
2018-12-05T13:52:45.226Z,1021.96
2018-12-05T13:53:45.334Z,1021.92
2018-12-05T13:54:45.202Z,1021.95
2018-12-05T13:55:46.358Z,1021.90
2018-12-05T13:56:45.173Z,1021.91
2018-12-05T13:57:45.281Z,1021.86
2018-12-05T13:58:45.157Z,1021.85
2018-12-05T13:59:45.239Z,1021.88
2018-12-05T14:00:45.159Z,1021.88
2018-12-05T14:01:45.220Z,1021.87
2018-12-05T14:02:45.113Z,1021.81
2018-12-05T14:03:45.174Z,1021.84
2018-12-05T14:04:45.080Z,1021.83
2018-12-05T14:05:45.188Z,1021.88
2018-12-05T14:06:45.064Z,1021.93
2018-12-05T14:07:45.126Z,1021.86
2018-12-05T14:08:45.044Z,1021.86
2018-12-05T14:09:45.084Z,1021.87
2018-12-05T14:10:45.032Z,1021.90
2018-12-05T14:11:45.049Z,1021.86
2018-12-05T14:12:44.998Z,1021.83
2018-12-05T14:13:45.028Z,1021.80
2018-12-05T14:14:44.977Z,1021.89
2018-12-05T14:15:45.027Z,1021.84
2018-12-05T14:16:44.967Z,1021.84
2018-12-05T14:17:45.057Z,1021.82
2018-12-05T14:18:44.927Z,1021.87
2018-12-05T14:19:45.029Z,1021.85
2018-12-05T14:20:44.931Z,1021.85
2018-12-05T14:21:45.035Z,1021.79
2018-12-05T14:22:44.887Z,1021.79
2018-12-05T14:23:44.963Z,1021.77
2018-12-05T14:24:44.861Z,1021.77
2018-12-05T14:25:44.965Z,1021.72
2018-12-05T14:26:44.854Z,1021.72
2018-12-05T14:27:44.900Z,1021.68
2018-12-05T14:28:44.817Z,1021.67
2018-12-05T14:29:44.817Z,1021.67
2018-12-05T14:30:46.491Z,1021.62
2018-12-05T14:31:45.896Z,1021.66
2018-12-05T14:32:44.768Z,1021.67
2018-12-05T14:33:44.805Z,1021.64
2018-12-05T14:34:44.747Z,1021.64
2018-12-05T14:35:44.794Z,1021.62
2018-12-05T14:36:44.751Z,1021.58
2018-12-05T14:37:44.852Z,1021.64
2018-12-05T14:38:44.709Z,1021.60
2018-12-05T14:39:44.819Z,1021.57
2018-12-05T14:40:44.679Z,1021.54
2018-12-05T14:41:44.721Z,1021.54
2018-12-05T14:42:44.661Z,1021.49
2018-12-05T14:43:44.747Z,1021.53
2018-12-05T14:44:44.639Z,1021.54
2018-12-05T14:45:44.715Z,1021.55
2018-12-05T14:46:44.624Z,1021.55
2018-12-05T14:47:44.686Z,1021.55
2018-12-05T14:48:44.591Z,1021.57
2018-12-05T14:49:45.673Z,1021.62
2018-12-05T14:50:44.572Z,1021.62
2018-12-05T14:51:44.671Z,1021.62
2018-12-05T14:52:44.547Z,1021.60
2018-12-05T14:53:44.592Z,1021.62
2018-12-05T14:54:44.529Z,1021.60
2018-12-05T14:55:44.551Z,1021.59
2018-12-05T14:56:44.527Z,1021.61
2018-12-05T14:57:44.539Z,1021.62
2018-12-05T14:58:44.491Z,1021.66
2018-12-05T14:59:44.589Z,1021.61
2018-12-05T15:00:44.458Z,1021.65
2018-12-05T15:01:44.503Z,1021.66
2018-12-05T15:02:44.428Z,1021.67
2018-12-05T15:03:44.531Z,1021.61
2018-12-05T15:04:44.411Z,1021.63
2018-12-05T15:05:44.512Z,1021.57
2018-12-05T15:06:44.429Z,1021.56
2018-12-05T15:07:44.469Z,1021.57
2018-12-05T15:08:44.365Z,1021.61
2018-12-05T15:09:44.439Z,1021.56
2018-12-05T15:10:44.346Z,1021.57
2018-12-05T15:11:44.442Z,1021.54
2018-12-05T15:12:44.324Z,1021.54
2018-12-05T15:13:44.373Z,1021.55
2018-12-05T15:14:44.295Z,1021.47
2018-12-05T15:15:44.350Z,1021.52
2018-12-05T15:16:44.305Z,1021.51
2018-12-05T15:17:45.331Z,1021.50
2018-12-05T15:18:44.263Z,1021.49
2018-12-05T15:19:44.288Z,1021.50
2018-12-05T15:20:44.297Z,1021.49
2018-12-05T15:21:44.341Z,1021.46
2018-12-05T15:22:44.224Z,1021.47
2018-12-05T15:23:44.424Z,1021.44
2018-12-05T15:24:44.189Z,1021.36
2018-12-05T15:25:44.281Z,1021.37
2018-12-05T15:26:44.171Z,1021.38
2018-12-05T15:27:44.305Z,1021.35
2018-12-05T15:28:44.141Z,1021.38
2018-12-05T15:29:44.218Z,1021.32
2018-12-05T15:30:44.119Z,1021.30
2018-12-05T15:31:44.184Z,1021.34
2018-12-05T15:32:44.126Z,1021.28
2018-12-05T15:33:44.182Z,1021.31
2018-12-05T15:34:44.079Z,1021.26
2018-12-05T15:35:44.119Z,1021.27
2018-12-05T15:36:44.052Z,1021.24
2018-12-05T15:37:44.127Z,1021.26
2018-12-05T15:38:44.030Z,1021.22
2018-12-05T15:39:44.067Z,1021.20
2018-12-05T15:40:44.025Z,1021.16
2018-12-05T15:41:44.039Z,1021.17
2018-12-05T15:42:43.996Z,1021.14
2018-12-05T15:43:44.100Z,1021.15
2018-12-05T15:44:43.964Z,1021.10
2018-12-05T15:45:44.063Z,1021.06
2018-12-05T15:46:43.935Z,1021.04
2018-12-05T15:47:44.073Z,1021.03
2018-12-05T15:48:43.913Z,1021.02
2018-12-05T15:49:44.002Z,1020.99
2018-12-05T15:50:43.903Z,1021.05
2018-12-05T15:51:43.969Z,1021.00
2018-12-05T15:52:43.973Z,1021.02
2018-12-05T15:53:43.932Z,1021.02
2018-12-05T15:54:43.851Z,1021.01
2018-12-05T15:55:43.921Z,1020.99
2018-12-05T15:56:43.827Z,1020.98
2018-12-05T15:57:43.911Z,1020.97
2018-12-05T15:58:43.803Z,1020.95
2018-12-05T15:59:43.854Z,1020.94
2018-12-05T16:00:43.780Z,1020.94
2018-12-05T16:01:43.807Z,1020.95
2018-12-05T16:02:43.764Z,1020.92
2018-12-05T16:03:43.819Z,1020.93
2018-12-05T16:04:43.733Z,1020.94
2018-12-05T16:05:43.744Z,1020.89
2018-12-05T16:06:43.722Z,1020.88
2018-12-05T16:07:44.746Z,1020.89
2018-12-05T16:08:43.713Z,1020.91
2018-12-05T16:09:44.703Z,1020.90
2018-12-05T16:10:43.668Z,1020.85
2018-12-05T16:11:43.752Z,1020.84
2018-12-05T16:12:43.645Z,1020.82
2018-12-05T16:13:43.753Z,1020.80
2018-12-05T16:14:43.637Z,1020.80
2018-12-05T16:15:43.688Z,1020.80
2018-12-05T16:16:43.615Z,1020.81
2018-12-05T16:17:43.662Z,1020.79
2018-12-05T16:18:43.616Z,1020.76
2018-12-05T16:19:43.628Z,1020.74
2018-12-05T16:20:43.559Z,1020.75
2018-12-05T16:21:43.604Z,1020.74
2018-12-05T16:22:43.531Z,1020.70
2018-12-05T16:23:43.609Z,1020.74
2018-12-05T16:24:43.511Z,1020.68
2018-12-05T16:25:43.528Z,1020.68
2018-12-05T16:26:43.489Z,1020.68
2018-12-05T16:27:43.600Z,1020.68
2018-12-05T16:28:43.485Z,1020.66
2018-12-05T16:29:43.577Z,1020.65
2018-12-05T16:30:43.460Z,1020.67
2018-12-05T16:31:43.556Z,1020.64
2018-12-05T16:32:43.518Z,1020.61
2018-12-05T16:33:43.542Z,1020.66
2018-12-05T16:34:43.419Z,1020.64
2018-12-05T16:35:43.481Z,1020.68
2018-12-05T16:36:43.393Z,1020.73
2018-12-05T16:37:43.440Z,1020.71
2018-12-05T16:38:43.401Z,1020.69
2018-12-05T16:39:43.414Z,1020.71
2018-12-05T16:40:43.334Z,1020.67
2018-12-05T16:41:43.449Z,1020.65
2018-12-05T16:42:43.327Z,1020.63
2018-12-05T16:43:43.391Z,1020.66
2018-12-05T16:44:43.289Z,1020.72
2018-12-05T16:45:43.315Z,1020.75
2018-12-05T16:46:43.265Z,1020.73
2018-12-05T16:47:43.390Z,1020.72
2018-12-05T16:48:43.292Z,1020.74
2018-12-05T16:49:44.275Z,1020.73
2018-12-05T16:50:43.215Z,1020.64
2018-12-05T16:51:44.238Z,1020.66
2018-12-05T16:52:43.199Z,1020.65
2018-12-05T16:53:43.304Z,1020.62
2018-12-05T16:54:43.207Z,1020.60
2018-12-05T16:55:43.255Z,1020.62
2018-12-05T16:56:43.155Z,1020.53
2018-12-05T16:57:43.247Z,1020.62
2018-12-05T16:58:43.131Z,1020.56
2018-12-05T16:59:43.240Z,1020.51
2018-12-05T17:00:43.119Z,1020.57
2018-12-05T17:01:43.162Z,1020.60
2018-12-05T17:02:43.093Z,1020.60
2018-12-05T17:03:43.131Z,1020.58
2018-12-05T17:04:43.089Z,1020.57
2018-12-05T17:05:43.101Z,1020.57
2018-12-05T17:06:43.058Z,1020.53
2018-12-05T17:07:43.070Z,1020.50
2018-12-05T17:08:43.017Z,1020.47
2018-12-05T17:09:43.085Z,1020.55
2018-12-05T17:10:42.996Z,1020.55
2018-12-05T17:11:43.010Z,1020.59
2018-12-05T17:12:42.995Z,1020.56
2018-12-05T17:13:43.069Z,1020.59
2018-12-05T17:14:42.973Z,1020.57
2018-12-05T17:15:43.043Z,1020.53
2018-12-05T17:16:42.927Z,1020.55
2018-12-05T17:17:43.004Z,1020.58
2018-12-05T17:18:42.910Z,1020.60
2018-12-05T17:19:43.023Z,1020.56
2018-12-05T17:20:42.887Z,1020.58
2018-12-05T17:21:42.944Z,1020.51
2018-12-05T17:22:42.866Z,1020.47
2018-12-05T17:23:42.915Z,1020.51
2018-12-05T17:24:42.864Z,1020.55
2018-12-05T17:25:42.891Z,1020.48
2018-12-05T17:26:42.829Z,1020.48
2018-12-05T17:27:42.855Z,1020.48
2018-12-05T17:28:42.798Z,1020.51
2018-12-05T17:29:42.851Z,1020.56
2018-12-05T17:30:42.785Z,1020.50
2018-12-05T17:31:42.783Z,1020.50
2018-12-05T17:32:42.757Z,1020.53
2018-12-05T17:33:43.891Z,1020.55
2018-12-05T17:34:42.729Z,1020.56
2018-12-05T17:35:43.781Z,1020.52
2018-12-05T17:36:42.704Z,1020.54
2018-12-05T17:37:42.795Z,1020.52
2018-12-05T17:38:42.681Z,1020.47
2018-12-05T17:39:42.774Z,1020.51
2018-12-05T17:40:42.683Z,1020.52
2018-12-05T17:41:42.737Z,1020.51
2018-12-05T17:42:42.641Z,1020.47
2018-12-05T17:43:42.702Z,1020.51
2018-12-05T17:44:42.615Z,1020.46
2018-12-05T17:45:42.701Z,1020.52
2018-12-05T17:46:42.587Z,1020.51
2018-12-05T17:47:42.632Z,1020.46
2018-12-05T17:48:42.574Z,1020.45
2018-12-05T17:49:42.599Z,1020.41
2018-12-05T17:50:42.699Z,1020.41
2018-12-05T17:51:42.567Z,1020.38
2018-12-05T17:52:42.523Z,1020.38
2018-12-05T17:53:42.534Z,1020.32
2018-12-05T17:54:42.513Z,1020.33
2018-12-05T17:55:42.555Z,1020.26
2018-12-05T17:56:42.562Z,1020.27
2018-12-05T17:57:42.607Z,1020.25
2018-12-05T17:58:42.455Z,1020.26
2018-12-05T17:59:42.550Z,1020.23
2018-12-05T18:00:42.455Z,1020.18
2018-12-05T18:01:44.255Z,1020.17
2018-12-05T18:02:42.412Z,1020.25
2018-12-05T18:03:42.479Z,1020.18
2018-12-05T18:04:42.388Z,1020.13
2018-12-05T18:05:42.498Z,1020.11
2018-12-05T18:06:42.379Z,1020.08
2018-12-05T18:07:42.417Z,1020.09
2018-12-05T18:08:42.808Z,1020.07
2018-12-05T18:09:42.385Z,1019.97
2018-12-05T18:10:42.473Z,1019.98
2018-12-05T18:11:42.391Z,1019.99
2018-12-05T18:12:42.307Z,1019.98
2018-12-05T18:13:42.974Z,1019.97
2018-12-05T18:14:42.288Z,1020.02
2018-12-05T18:15:47.409Z,1019.94
2018-12-05T18:16:42.272Z,1019.94
2018-12-05T18:17:43.284Z,1019.93
2018-12-05T18:18:42.227Z,1019.86
2018-12-05T18:19:42.339Z,1019.96
2018-12-05T18:20:42.225Z,1019.96
2018-12-05T18:21:42.469Z,1019.89
2018-12-05T18:22:42.201Z,1019.90
2018-12-05T18:23:42.261Z,1019.87
2018-12-05T18:24:42.787Z,1019.85
2018-12-05T18:25:43.355Z,1019.86
2018-12-05T18:26:44.331Z,1019.90
2018-12-05T18:27:43.225Z,1019.88
2018-12-05T18:28:42.129Z,1019.92
2018-12-05T18:29:42.175Z,1019.94
2018-12-05T18:30:42.098Z,1019.89
2018-12-05T18:31:42.272Z,1019.91
2018-12-05T18:32:42.073Z,1019.93
2018-12-05T18:33:42.109Z,1019.93
2018-12-05T18:34:42.073Z,1019.91
2018-12-05T18:35:42.185Z,1019.91
2018-12-05T18:36:42.051Z,1019.92
2018-12-05T18:37:42.149Z,1019.84
2018-12-05T18:38:42.009Z,1019.83
2018-12-05T18:39:42.119Z,1019.81
2018-12-05T18:40:41.983Z,1019.79
2018-12-05T18:41:42.125Z,1019.78
2018-12-05T18:42:41.975Z,1019.79
2018-12-05T18:43:42.261Z,1019.73
2018-12-05T18:44:41.951Z,1019.72
2018-12-05T18:45:42.029Z,1019.73
2018-12-05T18:46:41.937Z,1019.67
2018-12-05T18:47:42.103Z,1019.72
2018-12-05T18:48:41.913Z,1019.72
2018-12-05T18:49:42.055Z,1019.74
2018-12-05T18:50:41.888Z,1019.74
2018-12-05T18:51:41.955Z,1019.71
2018-12-05T18:52:41.846Z,1019.69
2018-12-05T18:53:41.999Z,1019.66
2018-12-05T18:54:41.850Z,1019.66
2018-12-05T18:55:41.964Z,1019.59
2018-12-05T18:56:41.834Z,1019.61
2018-12-05T18:57:41.932Z,1019.58
2018-12-05T18:58:41.792Z,1019.56
2018-12-05T18:59:41.904Z,1019.47
2018-12-05T19:00:41.757Z,1019.51
2018-12-05T19:01:41.974Z,1019.50
2018-12-05T19:02:41.764Z,1019.53
2018-12-05T19:03:41.830Z,1019.54
2018-12-05T19:04:41.716Z,1019.49
2018-12-05T19:05:41.901Z,1019.47
2018-12-05T19:06:41.700Z,1019.45
2018-12-05T19:07:41.819Z,1019.47
2018-12-05T19:08:41.664Z,1019.48
2018-12-05T19:09:41.751Z,1019.40
2018-12-05T19:10:41.652Z,1019.41
2018-12-05T19:11:41.804Z,1019.45
2018-12-05T19:12:41.644Z,1019.41
2018-12-05T19:13:41.671Z,1019.38
2018-12-05T19:14:41.606Z,1019.40
2018-12-05T19:15:41.644Z,1019.35
2018-12-05T19:16:41.582Z,1019.34
2018-12-05T19:17:41.658Z,1019.35
2018-12-05T19:18:41.562Z,1019.28
2018-12-05T19:19:41.591Z,1019.33
2018-12-05T19:20:41.547Z,1019.26
2018-12-05T19:21:41.548Z,1019.26
2018-12-05T19:22:41.534Z,1019.29
2018-12-05T19:23:41.613Z,1019.28
2018-12-05T19:24:41.491Z,1019.29
2018-12-05T19:25:41.661Z,1019.29
2018-12-05T19:26:41.473Z,1019.27
2018-12-05T19:27:41.604Z,1019.28
2018-12-05T19:28:41.450Z,1019.25
2018-12-05T19:29:41.520Z,1019.20
2018-12-05T19:30:41.420Z,1019.17
2018-12-05T19:31:41.494Z,1019.20
2018-12-05T19:32:41.434Z,1019.13
2018-12-05T19:33:41.466Z,1019.10
2018-12-05T19:34:41.382Z,1019.05
2018-12-05T19:35:41.430Z,1019.07
2018-12-05T19:36:41.380Z,1019.01
2018-12-05T19:37:41.414Z,1019.05
2018-12-05T19:38:41.350Z,1019.02
2018-12-05T19:39:41.365Z,1019.03
2018-12-05T19:40:41.325Z,1019.03
2018-12-05T19:41:41.329Z,1019.04
2018-12-05T19:42:41.288Z,1019.03
2018-12-05T19:43:41.342Z,1019.04
2018-12-05T19:44:41.267Z,1019.01
2018-12-05T19:45:42.397Z,1018.96
2018-12-05T19:46:41.271Z,1019.00
2018-12-05T19:47:42.256Z,1019.09
2018-12-05T19:48:41.259Z,1019.11
2018-12-05T19:49:43.251Z,1019.15
2018-12-05T19:50:41.206Z,1019.15
2018-12-05T19:51:41.273Z,1019.16
2018-12-05T19:52:41.210Z,1019.14
2018-12-05T19:53:41.277Z,1019.11
2018-12-05T19:54:41.143Z,1019.14
2018-12-05T19:55:41.326Z,1019.11
2018-12-05T19:56:41.142Z,1019.14
2018-12-05T19:57:41.278Z,1019.11
2018-12-05T19:58:41.155Z,1019.07
2018-12-05T19:59:41.257Z,1019.05
2018-12-05T20:00:41.078Z,1019.08
2018-12-05T20:01:41.116Z,1019.07
2018-12-05T20:02:41.060Z,1019.07
2018-12-05T20:03:41.219Z,1019.10
2018-12-05T20:04:41.046Z,1019.08
2018-12-05T20:05:41.151Z,1019.11
2018-12-05T20:06:41.016Z,1019.10
2018-12-05T20:07:41.220Z,1019.06
2018-12-05T20:08:42.787Z,1019.05
2018-12-05T20:09:41.087Z,1019.08
2018-12-05T20:10:40.965Z,1019.08
2018-12-05T20:11:41.053Z,1019.09
2018-12-05T20:12:40.950Z,1019.05
2018-12-05T20:13:44.029Z,1019.09
2018-12-05T20:14:40.936Z,1019.07
2018-12-05T20:15:41.000Z,1019.09
2018-12-05T20:16:40.912Z,1019.11
2018-12-05T20:17:40.974Z,1019.09
2018-12-05T20:18:40.885Z,1019.08
2018-12-05T20:19:40.981Z,1019.01
2018-12-05T20:20:40.874Z,1019.05
2018-12-05T20:21:41.000Z,1018.98
2018-12-05T20:22:40.834Z,1018.95
2018-12-05T20:23:40.865Z,1018.94
2018-12-05T20:24:40.843Z,1018.91
2018-12-05T20:25:41.041Z,1018.98
2018-12-05T20:26:40.793Z,1019.00
2018-12-05T20:27:40.902Z,1018.97
2018-12-05T20:28:42.244Z,1018.96
2018-12-05T20:29:41.069Z,1018.96
2018-12-05T20:30:40.759Z,1018.94
2018-12-05T20:31:41.869Z,1018.93
2018-12-05T20:32:40.723Z,1018.94
2018-12-05T20:33:40.820Z,1018.87
2018-12-05T20:34:40.727Z,1018.95
2018-12-05T20:35:40.892Z,1018.98
2018-12-05T20:36:40.915Z,1018.97
2018-12-05T20:37:40.744Z,1018.95
2018-12-05T20:38:40.658Z,1018.95
2018-12-05T20:39:40.869Z,1018.96
2018-12-05T20:40:40.639Z,1018.88
2018-12-05T20:41:41.722Z,1018.89
2018-12-05T20:42:40.632Z,1018.80
2018-12-05T20:43:41.774Z,1018.91
2018-12-05T20:44:40.601Z,1018.86
2018-12-05T20:45:40.721Z,1018.81
2018-12-05T20:46:40.569Z,1018.76
2018-12-05T20:47:40.592Z,1018.85
2018-12-05T20:48:40.549Z,1018.75
2018-12-05T20:49:40.710Z,1018.77
2018-12-05T20:50:40.525Z,1018.73